Time;durP1;ratioP1;P1;durP2;ratioP2;P2;SDS_P1;SDS_P2;PMS_P1;PMS_P2;Temp;Humidity;BMP_temperature;BMP_pressure;BME280_temperature;BME280_humidity;BME280_pressure;Samples;Min_cycle;Max_cycle;Signal;HPM_P1;HPM_P2
2021/09/14 00:02:25;;;;;;;17.43;10.27;;;14.50;99.90;;;;;;5074514;28;20513;-64
2021/09/14 00:04:52;;;;;;;18.03;8.33;;;14.40;99.90;;;;;;5074944;28;20415;-65
2021/09/14 00:07:20;;;;;;;23.60;9.77;;;14.40;99.90;;;;;;5074640;28;20416;-65
2021/09/14 00:09:47;;;;;;;30.20;14.63;;;14.60;99.90;;;;;;5069809;28;20490;-65
2021/09/14 00:12:14;;;;;;;23.07;10.23;;;15.10;99.90;;;;;;5058365;28;20413;-66
2021/09/14 00:14:42;;;;;;;15.67;7.63;;;15.30;99.90;;;;;;5060720;28;20412;-65
2021/09/14 00:17:09;;;;;;;36.67;12.17;;;15.60;99.90;;;;;;5065419;28;20438;-66
2021/09/14 00:19:37;;;;;;;33.10;10.80;;;15.60;99.90;;;;;;5074836;28;20482;-66
2021/09/14 00:22:04;;;;;;;15.23;6.40;;;15.70;99.90;;;;;;5074732;28;20439;-65
2021/09/14 00:24:32;;;;;;;27.47;13.30;;;15.40;99.90;;;;;;5068541;28;20465;-64
2021/09/14 00:26:59;;;;;;;30.17;11.17;;;15.50;99.90;;;;;;5048851;28;20428;-65
2021/09/14 00:29:26;;;;;;;14.53;5.90;;;15.70;99.90;;;;;;5074688;28;20770;-65
2021/09/14 00:31:54;;;;;;;16.43;7.73;;;15.90;99.90;;;;;;5074821;28;20226;-64
2021/09/14 00:34:21;;;;;;;15.67;7.93;;;16.00;99.90;;;;;;5074928;28;20504;-65
2021/09/14 00:36:48;;;;;;;16.27;7.27;;;16.00;99.90;;;;;;5074383;28;20408;-64
2021/09/14 00:39:15;;;;;;;504.27;167.57;;;15.80;99.90;;;;;;5074499;28;20626;-63
2021/09/14 00:41:43;;;;;;;45.87;15.40;;;15.80;99.90;;;;;;5074439;28;20427;-64
2021/09/14 00:44:11;;;;;;;620.47;175.73;;;16.40;99.90;;;;;;5074227;28;20598;-64
2021/09/14 00:46:39;;;;;;;18.40;11.40;;;16.00;99.90;;;;;;5074075;28;20420;-66
2021/09/14 00:49:06;;;;;;;24.50;9.50;;;15.80;99.90;;;;;;5071995;28;20463;-68
2021/09/14 00:51:34;;;;;;;27.20;10.27;;;15.40;99.90;;;;;;5074260;28;20243;-69
2021/09/14 00:54:01;;;;;;;29.37;11.80;;;15.30;99.90;;;;;;5074650;28;20271;-65
2021/09/14 00:56:29;;;;;;;34.70;12.53;;;15.50;99.90;;;;;;5065146;28;20424;-67
2021/09/14 00:58:56;;;;;;;24.13;10.17;;;15.60;99.90;;;;;;5064668;28;20515;-65
2021/09/14 01:01:24;;;;;;;607.43;174.87;;;15.60;99.90;;;;;;5054301;28;20215;-67
2021/09/14 01:03:51;;;;;;;15.30;6.97;;;15.70;99.90;;;;;;5072969;28;20431;-68
2021/09/14 01:06:18;;;;;;;16.37;7.20;;;16.10;99.90;;;;;;5074219;28;20202;-66
2021/09/14 01:08:47;;;;;;;18.43;9.17;;;16.00;99.90;;;;;;5073871;28;20189;-67
2021/09/14 01:11:14;;;;;;;16.23;8.47;;;16.10;99.90;;;;;;5073856;28;20224;-68
2021/09/14 01:13:45;;;;;;;24.33;10.00;;;15.60;99.90;;;;;;5073907;28;20210;-67
2021/09/14 01:16:12;;;;;;;30.53;11.53;;;15.30;99.90;;;;;;5073891;28;20176;-69
2021/09/14 01:18:40;;;;;;;27.37;10.43;;;15.40;99.90;;;;;;5073658;28;20180;-68
2021/09/14 01:21:08;;;;;;;63.37;18.63;;;15.60;99.90;;;;;;5073718;28;20182;-67
2021/09/14 01:23:35;;;;;;;27.47;10.33;;;15.80;99.90;;;;;;5060516;28;20444;-66
2021/09/14 01:26:03;;;;;;;30.73;12.53;;;15.70;99.90;;;;;;5052460;28;20234;-66
2021/09/14 01:28:30;;;;;;;29.87;12.90;;;15.70;99.90;;;;;;5060912;28;20180;-66
2021/09/14 01:30:58;;;;;;;23.57;9.07;;;15.70;99.90;;;;;;5055543;28;20302;-66
2021/09/14 01:33:25;;;;;;;41.43;13.43;;;15.60;99.90;;;;;;5052021;28;20253;-68
2021/09/14 01:35:53;;;;;;;23.37;9.43;;;15.60;99.90;;;;;;5058459;28;20515;-66
2021/09/14 01:38:20;;;;;;;29.23;11.77;;;15.60;99.90;;;;;;5053204;28;20181;-66
2021/09/14 01:44:28;;;;;;;24.43;12.47;;;16.10;99.90;;;;;;5038420;28;20242;-67
2021/09/14 01:47:10;;;;;;;29.73;11.97;;;16.10;99.90;;;;;;5039954;28;20179;-68
2021/09/14 01:49:39;;;;;;;24.50;9.80;;;16.00;99.90;;;;;;5052658;28;20522;-70
2021/09/14 01:52:06;;;;;;;617.57;178.53;;;16.00;99.90;;;;;;5052138;28;20205;-70
2021/09/14 01:54:34;;;;;;;17.17;10.37;;;16.20;99.90;;;;;;5053988;28;20719;-71
2021/09/14 01:57:05;;;;;;;16.60;7.57;;;16.50;99.90;;;;;;5064243;28;20652;-65
2021/09/14 01:59:33;;;;;;;25.47;11.27;;;16.20;99.90;;;;;;5067989;28;20204;-67
2021/09/14 02:02:32;;;;;;;22.43;8.90;;;16.30;99.90;;;;;;5052614;28;20708;-67
2021/09/14 02:07:40;;;;;;;843.07;248.73;;;16.00;99.90;;;;;;5040658;28;20432;-65
2021/09/14 02:43:10;;;;;;;598.07;179.80;;;15.80;99.90;;;;;;5049220;28;20508;-71
2021/09/14 02:58:37;;;;;;;25.73;11.97;;;17.10;99.90;;;;;;5051131;28;20277;-70
2021/09/14 02:59:29;;;;;;;604.80;176.70;;;17.10;99.90;;;;;;5052030;28;20197;-68
2021/09/14 03:01:57;;;;;;;48.70;14.97;;;16.60;99.90;;;;;;5049428;28;20468;-69
2021/09/14 03:04:24;;;;;;;16.83;8.53;;;15.90;99.90;;;;;;5061844;28;20646;-67
2021/09/14 03:06:52;;;;;;;538.57;166.77;;;15.10;99.90;;;;;;5053705;28;20429;-67
2021/09/14 03:09:19;;;;;;;17.27;6.83;;;14.70;99.90;;;;;;5051604;28;20444;-67
2021/09/14 03:11:46;;;;;;;15.27;6.47;;;14.20;99.90;;;;;;5051295;28;20429;-70
2021/09/14 03:14:14;;;;;;;23.13;8.23;;;14.20;99.90;;;;;;5055408;28;20417;-68
2021/09/14 03:16:41;;;;;;;16.70;7.90;;;14.50;99.90;;;;;;5063982;28;20474;-72
2021/09/14 03:19:09;;;;;;;17.03;6.83;;;14.60;99.90;;;;;;5053364;28;20428;-69
2021/09/14 03:21:36;;;;;;;15.30;6.90;;;14.30;99.90;;;;;;5054684;28;20914;-66
2021/09/14 03:24:03;;;;;;;22.07;11.37;;;14.30;99.90;;;;;;5054935;28;20421;-68
2021/09/14 03:26:31;;;;;;;614.07;172.60;;;14.50;99.90;;;;;;5054912;28;20425;-68
2021/09/14 03:28:58;;;;;;;17.83;7.87;;;14.90;99.90;;;;;;5058182;28;20506;-71
2021/09/14 03:31:25;;;;;;;27.47;10.37;;;15.40;99.90;;;;;;5052912;28;20209;-70
2021/09/14 03:33:54;;;;;;;26.90;10.80;;;15.20;99.90;;;;;;5053362;28;20188;-69
2021/09/14 03:36:21;;;;;;;29.83;10.73;;;15.10;99.90;;;;;;5048509;28;20428;-67
2021/09/14 03:38:48;;;;;;;557.60;165.90;;;14.80;99.90;;;;;;5051983;28;20425;-69
2021/09/14 03:41:16;;;;;;;16.10;7.70;;;14.50;99.90;;;;;;5054483;28;20486;-71
2021/09/14 03:43:43;;;;;;;24.83;9.67;;;14.20;99.90;;;;;;5046735;28;21132;-68
2021/09/14 03:46:11;;;;;;;21.70;9.87;;;14.10;99.90;;;;;;5047607;28;20463;-71
2021/09/14 03:48:38;;;;;;;25.90;11.63;;;14.30;99.90;;;;;;5060212;28;20425;-74
2021/09/14 03:51:05;;;;;;;24.57;9.53;;;14.30;99.90;;;;;;5049119;28;20484;-69
2021/09/14 03:53:33;;;;;;;26.63;10.50;;;14.60;99.90;;;;;;5054699;28;20899;-71
2021/09/14 03:56:00;;;;;;;39.47;13.60;;;14.60;99.90;;;;;;5054525;28;20807;-68
2021/09/14 03:58:27;;;;;;;19.93;8.60;;;14.80;99.90;;;;;;5052984;28;20424;-68
2021/09/14 04:00:55;;;;;;;27.57;9.87;;;14.70;99.90;;;;;;5052085;28;20927;-69
2021/09/14 04:08:51;;;;;;;28.60;13.57;;;13.70;99.90;;;;;;5053545;28;20523;-68
2021/09/14 04:11:21;;;;;;;27.33;9.43;;;13.40;99.90;;;;;;5050152;28;20473;-68
2021/09/14 04:13:52;;;;;;;21.83;8.73;;;13.30;99.90;;;;;;5059782;28;20420;-67
2021/09/14 04:16:21;;;;;;;24.53;9.13;;;13.30;99.90;;;;;;5058414;28;20432;-70
2021/09/14 04:18:49;;;;;;;17.70;8.20;;;13.20;99.90;;;;;;5055367;28;20914;-69
2021/09/14 04:21:17;;;;;;;22.10;8.23;;;13.40;99.90;;;;;;5069675;28;20514;-69
2021/09/14 04:23:44;;;;;;;26.00;11.77;;;13.40;99.90;;;;;;5043503;28;20429;-69
2021/09/14 04:26:12;;;;;;;33.30;11.20;;;13.50;99.90;;;;;;5063272;28;20442;-70
2021/09/14 04:28:39;;;;;;;16.53;9.70;;;13.70;99.90;;;;;;5069740;28;20447;-69
2021/09/14 04:31:06;;;;;;;22.87;9.77;;;13.50;99.90;;;;;;5053401;28;20483;-71
2021/09/14 04:33:34;;;;;;;23.57;8.80;;;13.50;99.90;;;;;;5053616;28;20460;-66
2021/09/14 04:36:01;;;;;;;22.83;8.97;;;13.30;99.90;;;;;;5056983;28;20840;-68
2021/09/14 04:38:29;;;;;;;23.67;9.43;;;13.30;99.90;;;;;;5051835;28;20879;-66
2021/09/14 04:40:56;;;;;;;20.07;8.20;;;13.30;99.90;;;;;;5058302;28;20429;-67
2021/09/14 04:43:24;;;;;;;21.10;9.53;;;13.30;99.90;;;;;;5064057;28;20524;-67
2021/09/14 04:45:51;;;;;;;27.17;13.70;;;13.30;99.90;;;;;;5053615;28;20482;-66
2021/09/14 04:48:18;;;;;;;28.70;10.87;;;13.20;99.90;;;;;;5053665;28;20413;-69
2021/09/14 04:50:46;;;;;;;26.53;16.10;;;13.00;99.90;;;;;;5051591;28;20468;-68
2021/09/14 04:53:13;;;;;;;25.80;10.53;;;12.80;99.90;;;;;;5059248;28;20424;-70
2021/09/14 04:55:40;;;;;;;24.53;9.70;;;12.90;99.90;;;;;;5071003;28;20782;-72
2021/09/14 04:58:08;;;;;;;14.83;7.03;;;13.00;99.90;;;;;;5074416;28;20408;-72
2021/09/14 05:00:35;;;;;;;16.30;9.50;;;13.00;99.90;;;;;;5050859;28;20504;-70
2021/09/14 05:03:02;;;;;;;16.93;9.67;;;13.20;99.90;;;;;;5061208;28;21008;-65
2021/09/14 05:05:30;;;;;;;26.13;15.63;;;13.40;99.90;;;;;;5052726;28;20467;-65
2021/09/14 05:07:57;;;;;;;24.40;13.67;;;13.50;99.90;;;;;;5053195;28;20562;-65
2021/09/14 05:10:26;;;;;;;21.20;9.77;;;13.60;99.90;;;;;;5061062;28;20448;-66
2021/09/14 05:12:53;;;;;;;22.43;11.40;;;13.90;99.90;;;;;;5044234;28;20512;-65
2021/09/14 05:15:21;;;;;;;23.63;10.93;;;14.00;99.90;;;;;;5062417;28;20919;-65
2021/09/14 05:17:48;;;;;;;31.03;14.07;;;14.20;99.90;;;;;;5055388;28;20897;-65
2021/09/14 05:20:15;;;;;;;21.27;11.20;;;14.50;99.90;;;;;;5053622;28;20482;-66
2021/09/14 05:22:43;;;;;;;14.60;6.57;;;15.70;99.90;;;;;;5054084;28;20970;-67
2021/09/14 05:25:10;;;;;;;452.77;158.77;;;16.50;99.90;;;;;;5052492;28;20442;-65
2021/09/14 05:27:38;;;;;;;15.30;6.93;;;16.60;99.90;;;;;;5048343;28;20923;-68
2021/09/14 05:30:06;;;;;;;26.13;8.43;;;15.90;99.90;;;;;;5052069;28;20456;-66
2021/09/14 05:32:34;;;;;;;17.83;9.47;;;15.60;99.90;;;;;;5053547;28;20189;-64
2021/09/14 05:35:02;;;;;;;16.30;8.43;;;15.30;99.90;;;;;;5053087;28;20638;-70
2021/09/14 05:37:29;;;;;;;16.43;7.63;;;15.50;99.90;;;;;;5056514;28;20944;-66
2021/09/14 05:39:56;;;;;;;482.23;167.37;;;15.20;99.90;;;;;;5051398;28;20437;-68
2021/09/14 05:42:24;;;;;;;16.83;10.53;;;15.00;99.90;;;;;;5052663;28;20448;-67
2021/09/14 05:44:51;;;;;;;16.87;9.90;;;14.60;99.90;;;;;;5052419;28;20860;-65
2021/09/14 05:47:18;;;;;;;18.10;9.97;;;14.20;99.90;;;;;;5052022;28;20439;-68
2021/09/14 05:49:46;;;;;;;18.33;11.03;;;13.80;99.90;;;;;;5054458;28;20421;-64
2021/09/14 05:52:13;;;;;;;28.03;14.17;;;13.60;99.90;;;;;;5050354;28;20891;-64
2021/09/14 05:54:40;;;;;;;26.57;11.60;;;13.70;99.90;;;;;;5052259;28;20483;-66
2021/09/14 05:57:07;;;;;;;31.23;12.80;;;14.10;99.90;;;;;;5052762;28;20429;-66
2021/09/14 05:59:35;;;;;;;29.10;13.43;;;14.10;99.90;;;;;;5051588;28;20768;-67
2021/09/14 06:02:02;;;;;;;21.70;9.73;;;14.10;99.90;;;;;;5053706;28;20464;-67
2021/09/14 06:04:29;;;;;;;32.00;16.33;;;14.10;99.90;;;;;;5052488;28;20429;-65
2021/09/14 06:06:57;;;;;;;23.27;9.27;;;14.20;99.90;;;;;;5052247;28;20468;-66
2021/09/14 06:09:24;;;;;;;15.53;6.57;;;14.70;99.90;;;;;;5053638;28;20851;-70
2021/09/14 06:11:51;;;;;;;25.60;10.60;;;15.30;99.90;;;;;;5051637;28;20966;-66
2021/09/14 06:14:19;;;;;;;27.30;9.77;;;15.60;99.90;;;;;;5049881;28;20453;-68
2021/09/14 06:16:46;;;;;;;296.30;100.80;;;15.60;99.90;;;;;;5051324;28;20424;-70
2021/09/14 06:19:14;;;;;;;16.90;9.70;;;15.40;99.90;;;;;;5048399;28;20433;-68
2021/09/14 06:21:41;;;;;;;15.30;6.10;;;15.50;99.90;;;;;;5050844;28;20444;-68
2021/09/14 06:24:08;;;;;;;14.60;6.00;;;15.20;99.90;;;;;;5050689;28;20584;-70
2021/09/14 06:26:36;;;;;;;18.07;11.73;;;15.10;99.90;;;;;;5049863;28;20425;-71
2021/09/14 06:29:03;;;;;;;16.70;9.00;;;15.10;99.90;;;;;;5053673;28;20478;-69
2021/09/14 06:31:31;;;;;;;16.13;7.47;;;15.40;99.90;;;;;;5046562;28;20480;-70
2021/09/14 06:33:58;;;;;;;16.30;8.30;;;15.40;99.90;;;;;;5049214;28;20187;-69
2021/09/14 06:36:26;;;;;;;19.03;13.33;;;15.10;99.90;;;;;;5052003;28;20442;-70
2021/09/14 06:38:54;;;;;;;15.83;8.33;;;14.90;99.90;;;;;;5042616;28;20923;-69
2021/09/14 06:41:22;;;;;;;16.97;9.93;;;14.90;99.90;;;;;;5048867;28;20433;-68
2021/09/14 06:43:49;;;;;;;16.87;9.53;;;14.70;99.90;;;;;;5054387;28;20432;-69
2021/09/14 06:46:17;;;;;;;16.40;8.50;;;14.60;99.90;;;;;;5056921;28;20962;-68
2021/09/14 06:48:44;;;;;;;16.50;8.93;;;14.40;99.90;;;;;;5050317;28;20480;-66
2021/09/14 06:51:11;;;;;;;18.43;12.30;;;14.40;99.90;;;;;;5050916;28;20474;-69
2021/09/14 06:53:39;;;;;;;16.20;9.13;;;14.50;99.90;;;;;;5043101;28;20429;-68
2021/09/14 06:56:07;;;;;;;16.57;9.83;;;15.00;99.90;;;;;;5049569;28;20770;-68
2021/09/14 06:58:34;;;;;;;19.30;13.60;;;14.90;99.90;;;;;;5051924;28;20440;-67
2021/09/14 07:01:02;;;;;;;17.77;7.93;;;14.80;99.90;;;;;;5046398;28;20475;-70
2021/09/14 07:03:30;;;;;;;16.53;10.00;;;14.70;99.90;;;;;;5051585;28;20475;-68
2021/09/14 07:05:57;;;;;;;17.20;10.03;;;14.80;99.90;;;;;;5050648;28;20474;-70
2021/09/14 07:08:24;;;;;;;16.23;10.17;;;14.70;99.90;;;;;;5045631;28;20428;-69
2021/09/14 07:10:52;;;;;;;21.53;10.47;;;14.90;99.90;;;;;;5048213;28;20468;-69
2021/09/14 07:13:22;;;;;;;26.73;14.70;;;14.90;99.90;;;;;;5053564;28;20423;-69
2021/09/14 07:15:49;;;;;;;26.43;11.93;;;14.90;99.90;;;;;;5051465;28;20449;-67
2021/09/14 07:18:17;;;;;;;34.03;9.00;;;14.90;99.90;;;;;;5050501;28;20428;-68
2021/09/14 07:20:44;;;;;;;18.57;10.53;;;14.70;99.90;;;;;;5045522;28;20497;-68
2021/09/14 07:23:11;;;;;;;25.00;14.53;;;14.50;99.90;;;;;;5051352;28;20433;-70
2021/09/14 07:25:41;;;;;;;17.53;11.97;;;14.30;99.90;;;;;;5049421;28;20500;-68
2021/09/14 07:28:09;;;;;;;33.90;12.50;;;14.10;99.90;;;;;;5053304;28;20419;-69
2021/09/14 07:30:38;;;;;;;16.03;9.67;;;14.00;99.90;;;;;;5046155;28;20540;-67
2021/09/14 07:33:06;;;;;;;41.43;17.40;;;13.90;99.90;;;;;;5049987;28;20410;-68
2021/09/14 07:35:33;;;;;;;15.07;7.23;;;13.80;99.90;;;;;;5048947;28;20425;-69
2021/09/14 07:38:01;;;;;;;22.53;10.93;;;13.80;99.90;;;;;;5045821;28;20449;-69
2021/09/14 07:40:29;;;;;;;27.00;14.73;;;13.80;99.90;;;;;;5042110;28;20571;-68
2021/09/14 07:42:57;;;;;;;21.83;10.70;;;13.80;99.90;;;;;;5051837;28;20517;-68
2021/09/14 07:45:25;;;;;;;21.07;12.30;;;13.70;99.90;;;;;;5052111;28;20498;-68
2021/09/14 07:47:53;;;;;;;16.83;8.27;;;13.60;99.90;;;;;;5050911;28;20429;-71
2021/09/14 07:50:21;;;;;;;25.67;11.70;;;13.60;99.90;;;;;;5052438;28;20506;-68
2021/09/14 07:52:50;;;;;;;21.33;10.10;;;13.50;99.90;;;;;;5048001;28;20826;-69
2021/09/14 07:55:17;;;;;;;21.27;9.07;;;13.50;99.90;;;;;;5053863;28;20483;-68
2021/09/14 07:57:45;;;;;;;17.00;10.43;;;13.50;99.90;;;;;;5050395;28;20765;-70
2021/09/14 08:00:13;;;;;;;15.77;8.43;;;13.50;99.90;;;;;;5054717;28;20420;-68
2021/09/14 08:02:41;;;;;;;21.47;16.87;;;13.40;99.90;;;;;;5044263;28;20522;-68
2021/09/14 08:05:08;;;;;;;46.87;16.03;;;13.40;99.90;;;;;;5052335;28;20995;-69
2021/09/14 08:07:36;;;;;;;15.50;7.30;;;13.40;99.90;;;;;;5054147;28;20424;-69
2021/09/14 08:10:03;;;;;;;16.33;9.67;;;13.50;99.90;;;;;;5053162;28;20452;-68
2021/09/14 08:12:31;;;;;;;25.37;10.40;;;13.40;99.90;;;;;;5054593;28;20482;-71
2021/09/14 08:14:58;;;;;;;26.30;11.50;;;13.40;99.90;;;;;;5047049;28;20424;-67
2021/09/14 08:17:25;;;;;;;17.33;10.67;;;13.40;99.90;;;;;;5053798;28;20931;-69
2021/09/14 08:19:53;;;;;;;22.20;9.23;;;13.40;99.90;;;;;;5054948;28;20931;-69
2021/09/14 08:22:22;;;;;;;436.93;156.30;;;13.40;99.90;;;;;;5054626;28;20838;-68
2021/09/14 08:24:49;;;;;;;17.43;10.30;;;13.40;99.90;;;;;;5056551;28;20433;-69
2021/09/14 08:27:16;;;;;;;21.17;10.77;;;13.30;99.90;;;;;;5055164;28;20496;-69
2021/09/14 08:29:44;;;;;;;18.10;10.07;;;13.30;99.90;;;;;;5054602;28;20432;-70
2021/09/14 08:32:11;;;;;;;446.63;153.63;;;13.30;99.90;;;;;;5055289;28;20429;-69
2021/09/14 08:34:39;;;;;;;16.80;8.90;;;13.30;99.90;;;;;;5054161;28;20454;-68
2021/09/14 08:37:07;;;;;;;15.80;7.53;;;13.30;99.90;;;;;;5054987;28;20461;-67
2021/09/14 08:39:35;;;;;;;28.43;12.37;;;13.40;99.90;;;;;;5053232;28;20984;-67
2021/09/14 08:42:03;;;;;;;23.67;11.37;;;13.30;99.90;;;;;;5054941;28;20433;-68
2021/09/14 08:44:30;;;;;;;20.10;10.90;;;13.30;99.90;;;;;;5055120;28;20417;-68
2021/09/14 08:47:02;;;;;;;15.57;7.80;;;13.40;99.90;;;;;;5048396;28;20459;-67
2021/09/14 08:49:29;;;;;;;28.40;10.93;;;13.30;99.90;;;;;;5054412;28;20425;-67
2021/09/14 08:51:56;;;;;;;27.70;13.53;;;13.30;99.90;;;;;;5059180;28;20511;-67
2021/09/14 08:54:24;;;;;;;24.20;10.07;;;13.30;99.90;;;;;;5051680;28;20512;-67
2021/09/14 08:56:51;;;;;;;447.50;156.87;;;13.20;99.90;;;;;;5054764;28;20424;-67
2021/09/14 08:59:34;;;;;;;16.30;9.53;;;13.20;99.90;;;;;;5055020;28;20422;-69
2021/09/14 09:02:06;;;;;;;14.70;6.47;;;13.10;99.90;;;;;;5056745;28;20476;-68
2021/09/14 09:04:34;;;;;;;17.73;11.60;;;13.20;99.90;;;;;;5054977;28;20421;-69
2021/09/14 09:07:02;;;;;;;35.67;15.87;;;13.10;99.90;;;;;;5051551;28;20433;-70
2021/09/14 09:09:32;;;;;;;15.63;7.83;;;13.10;99.90;;;;;;5054516;28;20767;-68
2021/09/14 09:12:01;;;;;;;27.70;12.40;;;13.10;99.90;;;;;;5055376;28;20475;-69
2021/09/14 09:14:47;;;;;;;27.03;12.67;;;13.10;99.90;;;;;;5052627;28;20526;-67
2021/09/14 09:17:16;;;;;;;35.23;13.03;;;13.10;99.90;;;;;;5054391;28;20428;-68
2021/09/14 09:20:06;;;;;;;15.67;8.50;;;13.00;99.90;;;;;;5059949;28;20500;-69
2021/09/14 09:22:35;;;;;;;16.83;10.27;;;13.00;99.90;;;;;;5057663;28;20424;-68
2021/09/14 09:25:02;;;;;;;449.80;153.13;;;13.00;99.90;;;;;;5050721;28;20437;-68
2021/09/14 09:27:31;;;;;;;15.67;8.53;;;12.90;99.90;;;;;;5055130;28;20433;-69
2021/09/14 09:30:10;;;;;;;18.13;12.43;;;13.00;99.90;;;;;;5051697;28;20457;-69
2021/09/14 09:32:48;;;;;;;28.40;15.63;;;13.00;99.90;;;;;;5051154;28;20415;-68
2021/09/14 09:35:26;;;;;;;16.00;9.57;;;13.10;99.90;;;;;;5073553;28;20769;-68
2021/09/14 09:37:58;;;;;;;16.43;8.40;;;13.10;99.90;;;;;;5061348;28;20476;-70
2021/09/14 09:40:37;;;;;;;15.33;8.20;;;13.10;99.90;;;;;;5051489;28;20814;-67
2021/09/14 09:43:08;;;;;;;27.67;14.00;;;13.10;99.90;;;;;;5056214;28;20432;-66
2021/09/14 09:45:46;;;;;;;15.30;7.83;;;13.10;99.90;;;;;;5052342;28;20472;-66
2021/09/14 09:48:15;;;;;;;21.07;9.27;;;13.00;99.90;;;;;;5071505;28;20482;-66
2021/09/14 09:50:43;;;;;;;18.27;11.80;;;13.00;99.90;;;;;;5067062;28;20470;-65
2021/09/14 09:53:11;;;;;;;24.97;10.37;;;13.00;99.90;;;;;;5066657;28;20424;-67
2021/09/14 09:55:39;;;;;;;15.93;7.30;;;13.00;99.90;;;;;;5058299;28;20444;-67
2021/09/14 09:58:08;;;;;;;29.27;9.97;;;13.00;99.90;;;;;;5071670;28;20486;-67
2021/09/14 10:00:38;;;;;;;18.23;11.50;;;12.90;99.90;;;;;;5044515;28;20514;-66
2021/09/14 10:03:17;;;;;;;24.53;10.13;;;12.80;99.90;;;;;;5065761;28;20574;-67
2021/09/14 10:05:50;;;;;;;22.07;11.80;;;12.80;99.90;;;;;;5064404;28;20506;-66
2021/09/14 10:08:26;;;;;;;19.97;9.03;;;12.80;99.90;;;;;;5070883;28;20472;-66
2021/09/14 10:10:58;;;;;;;23.27;10.10;;;12.70;99.90;;;;;;5064937;28;20823;-68
2021/09/14 10:13:38;;;;;;;15.17;7.33;;;12.70;99.90;;;;;;5051438;28;20801;-68
2021/09/14 10:16:07;;;;;;;14.93;6.93;;;12.60;99.90;;;;;;5065822;28;20439;-67
2021/09/14 10:18:37;;;;;;;15.70;8.47;;;12.50;99.90;;;;;;5068459;28;20445;-68
2021/09/14 10:21:05;;;;;;;20.57;8.57;;;12.50;99.90;;;;;;5054863;28;20785;-67
2021/09/14 10:23:38;;;;;;;16.17;9.53;;;12.50;99.90;;;;;;5058615;28;20427;-66
2021/09/14 10:26:12;;;;;;;21.90;8.73;;;12.40;99.90;;;;;;5052276;28;20455;-67
2021/09/14 10:28:48;;;;;;;20.70;10.77;;;12.40;99.90;;;;;;5066436;28;20933;-68
2021/09/14 10:31:31;;;;;;;39.43;9.93;;;12.30;99.90;;;;;;5057048;28;20470;-67
2021/09/14 10:34:10;;;;;;;15.73;7.93;;;12.30;99.90;;;;;;5042150;28;20421;-67
2021/09/14 10:36:40;;;;;;;23.23;10.10;;;12.20;99.90;;;;;;5066544;28;20455;-68
2021/09/14 10:39:21;;;;;;;19.33;9.67;;;12.20;99.90;;;;;;5053027;28;20457;-67
2021/09/14 10:41:52;;;;;;;32.30;13.33;;;12.20;99.90;;;;;;5067332;28;20431;-68
2021/09/14 10:44:31;;;;;;;21.27;8.83;;;12.10;99.90;;;;;;5055346;28;20427;-68
2021/09/14 10:47:10;;;;;;;15.07;7.90;;;12.10;99.90;;;;;;5072480;28;20450;-66
2021/09/14 10:49:51;;;;;;;18.57;8.63;;;12.10;99.90;;;;;;5056731;28;20966;-66
2021/09/14 10:52:40;;;;;;;16.20;9.03;;;12.10;99.90;;;;;;5067256;28;20468;-66
2021/09/14 10:55:11;;;;;;;15.90;9.57;;;12.00;99.90;;;;;;5049917;28;20420;-66
2021/09/14 10:57:49;;;;;;;16.90;9.80;;;12.10;99.90;;;;;;5052318;28;20821;-67
2021/09/14 11:00:19;;;;;;;18.33;11.23;;;12.10;99.90;;;;;;5050647;28;20425;-65
2021/09/14 11:02:58;;;;;;;17.17;10.13;;;12.10;99.90;;;;;;5046635;28;20612;-66
2021/09/14 11:05:38;;;;;;;23.27;9.70;;;12.10;99.90;;;;;;5054470;28;20819;-66
2021/09/14 11:08:07;;;;;;;22.67;10.83;;;12.10;99.90;;;;;;5059622;28;20965;-65
2021/09/14 11:10:39;;;;;;;24.47;12.77;;;12.10;99.90;;;;;;5062256;28;20562;-66
2021/09/14 11:13:08;;;;;;;27.00;12.63;;;12.10;99.90;;;;;;5053615;28;20425;-65
2021/09/14 11:15:35;;;;;;;28.37;11.43;;;12.10;99.90;;;;;;5061408;28;20432;-67
2021/09/14 11:18:03;;;;;;;16.03;7.17;;;12.20;99.90;;;;;;5067185;28;20483;-67
2021/09/14 11:20:30;;;;;;;27.50;13.63;;;12.20;99.90;;;;;;5063718;28;20531;-67
2021/09/14 11:22:59;;;;;;;23.93;9.60;;;12.20;99.90;;;;;;5056162;28;20435;-68
2021/09/14 11:25:29;;;;;;;22.57;9.37;;;12.10;99.90;;;;;;5051592;28;20447;-67
2021/09/14 11:28:09;;;;;;;19.10;7.73;;;12.10;99.90;;;;;;5062837;28;20466;-67
2021/09/14 11:30:37;;;;;;;20.70;9.40;;;12.10;99.90;;;;;;5071746;28;20824;-67
2021/09/14 11:33:05;;;;;;;21.93;9.33;;;12.00;99.90;;;;;;5061393;28;20433;-67
2021/09/14 11:35:37;;;;;;;16.23;10.20;;;12.00;99.90;;;;;;5058620;28;20427;-68
2021/09/14 11:38:09;;;;;;;25.27;11.33;;;12.00;99.90;;;;;;5067327;28;20435;-68
2021/09/14 11:40:51;;;;;;;25.27;12.20;;;12.00;99.90;;;;;;5061130;28;20457;-67
2021/09/14 11:43:23;;;;;;;21.83;9.63;;;11.90;99.90;;;;;;5056630;28;20520;-68
2021/09/14 11:45:52;;;;;;;14.57;7.40;;;11.90;99.90;;;;;;5063484;28;20482;-67
2021/09/14 11:48:28;;;;;;;13.87;7.53;;;11.90;99.90;;;;;;5060745;28;20484;-68
2021/09/14 11:51:10;;;;;;;13.87;7.43;;;11.90;99.90;;;;;;5073540;28;20468;-67
2021/09/14 11:53:39;;;;;;;25.17;10.30;;;11.90;99.90;;;;;;5067000;28;20427;-67
2021/09/14 11:56:17;;;;;;;14.07;7.33;;;11.90;99.90;;;;;;5056764;28;20474;-67
2021/09/14 11:58:46;;;;;;;25.20;12.63;;;11.90;99.90;;;;;;5067434;28;20782;-67
2021/09/14 12:01:18;;;;;;;19.53;8.73;;;12.00;99.90;;;;;;5058070;28;20491;-69
2021/09/14 12:03:51;;;;;;;27.73;10.60;;;12.00;99.90;;;;;;5059752;28;20835;-67
2021/09/14 12:06:32;;;;;;;21.03;8.70;;;12.10;99.90;;;;;;5068263;28;20543;-67
2021/09/14 12:09:01;;;;;;;19.40;9.20;;;12.10;99.90;;;;;;5063238;28;20824;-65
2021/09/14 12:11:33;;;;;;;23.47;9.33;;;12.10;99.90;;;;;;5064253;28;20468;-66
2021/09/14 12:14:03;;;;;;;24.73;11.43;;;12.10;99.90;;;;;;5061126;28;20430;-67
2021/09/14 12:16:36;;;;;;;22.83;10.70;;;12.00;99.90;;;;;;5074022;28;20415;-66
2021/09/14 12:19:03;;;;;;;27.33;11.80;;;12.00;99.90;;;;;;5063027;28;20787;-66
2021/09/14 12:21:31;;;;;;;14.37;8.20;;;11.90;99.90;;;;;;5073060;28;20406;-64
2021/09/14 12:23:59;;;;;;;14.57;8.33;;;11.90;99.90;;;;;;5065693;28;21022;-66
2021/09/14 12:26:37;;;;;;;14.83;8.67;;;12.00;99.90;;;;;;5061373;28;20438;-66
2021/09/14 12:29:06;;;;;;;21.77;10.83;;;12.00;99.90;;;;;;5054084;28;20430;-66
2021/09/14 12:31:33;;;;;;;426.03;151.40;;;11.80;99.90;;;;;;5054517;28;20479;-66
2021/09/14 12:34:01;;;;;;;13.80;7.83;;;11.80;99.90;;;;;;5051407;28;20432;-65
2021/09/14 12:36:29;;;;;;;34.33;14.57;;;11.80;99.90;;;;;;5054075;28;20421;-66
2021/09/14 12:38:57;;;;;;;18.33;12.43;;;11.80;99.90;;;;;;5054335;28;20882;-66
2021/09/14 12:41:24;;;;;;;21.37;10.37;;;11.80;99.90;;;;;;5054608;28;20420;-65
2021/09/14 12:43:53;;;;;;;13.30;6.63;;;11.80;99.90;;;;;;5054192;28;20502;-66
2021/09/14 12:46:20;;;;;;;13.93;7.83;;;11.90;99.90;;;;;;5054168;28;20440;-66
2021/09/14 12:48:48;;;;;;;13.97;7.93;;;11.90;99.90;;;;;;5054121;28;20784;-66
2021/09/14 12:51:15;;;;;;;13.47;7.03;;;11.90;99.90;;;;;;5053982;28;20530;-66
2021/09/14 12:53:43;;;;;;;14.73;8.67;;;11.90;99.90;;;;;;5052833;28;20432;-66
2021/09/14 12:56:11;;;;;;;13.53;7.40;;;11.80;99.90;;;;;;5054263;28;20455;-66
2021/09/14 12:58:39;;;;;;;14.07;8.53;;;11.80;99.90;;;;;;5056126;28;20417;-66
2021/09/14 13:01:06;;;;;;;15.23;8.20;;;11.80;99.90;;;;;;5059583;28;20545;-66
2021/09/14 13:03:34;;;;;;;14.20;8.10;;;11.70;99.90;;;;;;5058059;28;20470;-68
2021/09/14 13:06:01;;;;;;;14.10;7.97;;;11.70;99.90;;;;;;5048244;28;20472;-67
2021/09/14 13:08:28;;;;;;;22.60;9.80;;;11.60;99.90;;;;;;5053664;28;20424;-68
2021/09/14 13:10:56;;;;;;;14.03;7.10;;;11.60;99.90;;;;;;5057590;27;20481;-67
2021/09/14 13:16:14;;;;;;;20.40;9.57;;;11.60;99.90;;;;;;5064118;28;20449;-67
2021/09/14 13:18:47;;;;;;;24.37;11.80;;;11.60;99.90;;;;;;5073634;28;20417;-69
2021/09/14 13:21:16;;;;;;;13.20;6.33;;;11.50;99.90;;;;;;5073410;28;20527;-68
2021/09/14 13:23:47;;;;;;;16.13;10.07;;;11.50;99.90;;;;;;5067521;28;20898;-70
2021/09/14 13:26:15;;;;;;;23.67;9.67;;;11.40;99.90;;;;;;5058512;28;20514;-69
2021/09/14 13:28:42;;;;;;;32.13;12.87;;;11.30;99.90;;;;;;5073154;28;20411;-69
2021/09/14 13:31:10;;;;;;;13.57;7.07;;;11.20;99.90;;;;;;5059524;28;20553;-67
2021/09/14 13:33:37;;;;;;;14.50;7.03;;;11.10;99.90;;;;;;5073710;28;20419;-67
2021/09/14 13:36:06;;;;;;;29.43;11.17;;;10.90;99.90;;;;;;5073136;28;20415;-67
2021/09/14 13:38:33;;;;;;;25.17;17.47;;;10.90;99.90;;;;;;5070756;28;20425;-67
2021/09/14 13:41:11;;;;;;;27.30;10.40;;;10.80;99.90;;;;;;5065462;28;20427;-68